^^
Station Historical Data
Daily Summary for January 15, 2018 Units:  English    Metric   Both
« Previous Day
Next Day »
Daily Weekly Monthly Yearly Custom
  High: Low: Average:
Temperature: 79.3 °F 45.7 °F 59.4 °F
Dew Point: 34.9 °F 25.5 °F 30.4 °F
Humidity: 56 % 15 % 37 %
Wind Speed: 5.8 mph 0 mph 2 mph
Wind Gust: 5.8 mph - -
Wind:- - SSE
Pressure: 30.1 in 30 in -
Precipitation: 0 in    
Historical Graphs
 
 
Tabular Data for January 15, 2018
Time Temperature Dew Point Pressure Wind Wind Speed Wind Gust Humidity Rainfall Rate (Hourly) solar Conditions
00:07 52 °F 32.7 °F 30.1 in NE 2.3 mph 2.3 mph 48 % 0 in 0.0 W/m2 CLR
00:13 51.6 °F 33.1 °F 30.1 in NE 1.2 mph 1.2 mph 49 % 0 in 0.0 W/m2 CLR
00:19 51.4 °F 33.1 °F 30.1 in NE 2.3 mph 2.3 mph 49 % 0 in 0.0 W/m2 CLR
00:26 51.4 °F 32.9 °F 30.1 in NE 1.2 mph 1.2 mph 49 % 0 in 0.0 W/m2 CLR
00:33 51.3 °F 32.7 °F 30.1 in NE 1.2 mph 1.2 mph 49 % 0 in 0.0 W/m2 CLR
00:42 51.3 °F 32.4 °F 30.1 in NNE 3.5 mph 3.5 mph 48 % 0 in 0.0 W/m2 CLR
00:50 51.4 °F 31.8 °F 30.1 in NNE 1.2 mph 1.2 mph 47 % 0 in 0.0 W/m2 CLR
00:58 51.6 °F 32 °F 30.1 in ENE 2 mph   47 % 0 in 0.0 W/m2 CLR
01:11 52.2 °F 31.5 °F 30.1 in NE 1.2 mph   45 % 0 in 0.0 W/m2 CLR
01:18 52.2 °F 31.5 °F 30.1 in NE 1.2 mph 1.2 mph 45 % 0 in 0.0 W/m2 CLR
01:46 51.1 °F 30.9 °F 30.1 in NE 1.2 mph 1.2 mph 46 % 0 in 0.0 W/m2 CLR
02:07 50.4 °F 31.5 °F 30.1 in Calm     48 % 0 in 0.0 W/m2 CLR
02:14 50 °F 31.6 °F 30.1 in NE 1.2 mph 1.2 mph 49 % 0 in 0.0 W/m2 CLR
02:26 49.3 °F 31.8 °F 30.1 in Calm     51 % 0 in 0.0 W/m2 CLR
02:35 48.7 °F 31.8 °F 30.1 in NE 1.2 mph 1.2 mph 52 % 0 in 0.0 W/m2 CLR
02:48 48 °F 32.2 °F 30.1 in NE 2.3 mph 2.3 mph 54 % 0 in 0.0 W/m2 CLR
02:56 47.8 °F 31.8 °F 30.1 in NE 2.3 mph 2.3 mph 54 % 0 in 0.0 W/m2 CLR
03:01 47.7 °F 31.5 °F 30.1 in NE 2.3 mph 2.3 mph 53 % 0 in 0.0 W/m2 CLR
03:09 47.5 °F 31.3 °F 30.1 in NE 1.2 mph 1.2 mph 53 % 0 in 0.0 W/m2 CLR
03:29 47.1 °F 31.5 °F 30.1 in NE 1.2 mph   54 % 0 in 0.0 W/m2 CLR
03:42 46.9 °F 31.1 °F 30.1 in NE 1.2 mph 1.2 mph 54 % 0 in 0.0 W/m2 CLR
03:50 46.8 °F 30.9 °F 30.1 in NE 1.2 mph 1.2 mph 54 % 0 in 0.0 W/m2 CLR
03:58 46.8 °F 30.9 °F 30.1 in Calm     54 % 0 in 0.0 W/m2 CLR
04:05 46.8 °F 31.5 °F 30.1 in NE 1 mph   55 % 0 in 0.0 W/m2 CLR
04:10 46.6 °F 31.3 °F 30.1 in NE 2 mph 2 mph 55 % 0 in 0.0 W/m2 CLR
04:15 46.6 °F 31.3 °F 30.1 in NE 1.2 mph 1.2 mph 55 % 0 in 0.0 W/m2 CLR
04:25 46.4 °F 30.6 °F 30.1 in Calm     54 % 0 in 0.0 W/m2 CLR
04:35 46.2 °F 30.6 °F 30.1 in Calm     54 % 0 in 0.0 W/m2 CLR
04:40 46.2 °F 30.9 °F 30.1 in Calm     55 % 0 in 0.0 W/m2 CLR
04:45 46 °F 31.3 °F 30.1 in NE 2.3 mph 2.3 mph 56 % 0 in 0.0 W/m2 CLR
04:51 46 °F 31.3 °F 30.1 in NE 1.2 mph 1.2 mph 56 % 0 in 0.0 W/m2 CLR
04:59 45.9 °F 30.9 °F 30.1 in NE 1.2 mph   56 % 0 in 0.0 W/m2 CLR
05:05 45.7 °F 30.4 °F 30.1 in NE 1.2 mph 1.2 mph 55 % 0 in 0.0 W/m2 CLR
05:12 45.9 °F 29.7 °F 30.1 in NE 2.3 mph 2.3 mph 53 % 0 in 0.0 W/m2 CLR
05:20 46 °F 29.8 °F 30.1 in Calm     53 % 0 in 0.0 W/m2 CLR
05:29 46.2 °F 30.6 °F 30.1 in NE 3.5 mph 3.5 mph 54 % 0 in 0.0 W/m2 CLR
05:44 46.9 °F 30.6 °F 30.1 in NE 3.5 mph 3.5 mph 53 % 0 in 0.0 W/m2 CLR
05:52 47.1 °F 30.7 °F 30.1 in NE 2.3 mph 2.3 mph 53 % 0 in 0.0 W/m2 CLR
05:58 47.1 °F 30.7 °F 30.1 in NE 1 mph 1 mph 53 % 0 in 0.0 W/m2 CLR
06:10 46.8 °F 30.6 °F 30.1 in Calm     53 % 0 in 0.0 W/m2 CLR
06:14 46.6 °F 31.3 °F 30.1 in NE 1 mph 3 mph 55 % 0 in 0.0 W/m2 CLR
06:25 46.2 °F 30.9 °F 30.1 in ENE 3.5 mph 3.5 mph 55 % 0 in 0.0 W/m2 CLR
06:30 46.2 °F 30.9 °F 30.1 in ENE 2.3 mph 2.3 mph 55 % 0 in 0.0 W/m2 CLR
06:35 46.2 °F 30.9 °F 30.1 in ENE 2.3 mph 2.3 mph 55 % 0 in 0.0 W/m2 CLR
06:43 46.2 °F 30.9 °F 30.1 in ENE 1.2 mph 1.2 mph 55 % 0 in 0.0 W/m2 CLR
06:49 46.2 °F 30.9 °F 30.1 in Calm     55 % 0 in 0.0 W/m2 CLR
06:54 46.2 °F 30.6 °F 30.1 in Calm     54 % 0 in 0.0 W/m2 CLR
07:00 46.2 °F 30.9 °F 30.1 in Calm     55 % 0 in 0.0 W/m2 CLR
07:11 46.2 °F 30.9 °F 30.1 in ENE 1.2 mph   55 % 0 in 0.0 W/m2 CLR
07:24 46 °F 30.7 °F 30.1 in Calm     55 % 0 in 11.0 W/m2 CLR
07:30 45.9 °F 30.6 °F 30.1 in Calm     55 % 0 in 7.0 W/m2 CLR
07:35 45.9 °F 30.6 °F 30.1 in ENE 1.2 mph 1.2 mph 55 % 0 in 11.0 W/m2 CLR
07:41 45.9 °F 30.6 °F 30.1 in Calm     55 % 0 in 16.0 W/m2 CLR
07:46 45.9 °F 30.6 °F 30.1 in Calm     55 % 0 in 18.0 W/m2 CLR
07:52 45.9 °F 30 °F 30.1 in Calm     54 % 0 in 21.0 W/m2 CLR
08:00 45.9 °F 29.7 °F 30.1 in Calm     53 % 0 in 35.0 W/m2 CLR
08:10 46 °F 29.8 °F 30.1 in Calm     53 % 0 in 69.0 W/m2 CLR
08:18 46.6 °F 29.3 °F 30.1 in ENE 1.2 mph 1.2 mph 51 % 0 in 93.0 W/m2 CLR
08:30 47.7 °F 28.9 °F 30.1 in Calm     48 % 0 in 197.0 W/m2 CLR
08:35 48.4 °F 28.6 °F 30.1 in ENE 2.3 mph   46 % 0 in 93.0 W/m2 CLR
08:45 50.4 °F 28 °F 30.1 in ESE 3.5 mph 3.5 mph 42 % 0 in 258.0 W/m2 CLR
08:50 50.9 °F 28.6 °F 30.1 in ESE 2.3 mph 2.3 mph 42 % 0 in 271.0 W/m2 CLR
09:00 52.2 °F 27.3 °F 30.1 in East 5.8 mph 5.8 mph 38 % 0 in 269.0 W/m2 CLR
09:11 53.4 °F 27.1 °F 30.1 in ENE 3.5 mph 3.5 mph 36 % 0 in 360.0 W/m2 CLR
09:16 54.1 °F 26.2 °F 30.1 in ESE 5.8 mph 5.8 mph 34 % 0 in 364.0 W/m2 CLR
09:28 55.2 °F 26.8 °F 30.1 in ESE 2 mph 2 mph 33 % 0 in 350.0 W/m2 CLR
09:43 56.7 °F 27.1 °F 30.1 in ESE 2.3 mph 2.3 mph 32 % 0 in 452.0 W/m2 CLR
09:53 57.7 °F 27.1 °F 30.1 in ESE 3.5 mph 3.5 mph 31 % 0 in 432.0 W/m2 CLR
09:58 58.3 °F 27.9 °F 30.1 in ESE 3.5 mph 3.5 mph 31 % 0 in 468.0 W/m2 CLR
10:08 59.5 °F 28 °F 30.1 in ESE 1.2 mph   30 % 0 in 311.0 W/m2 CLR
10:28 61 °F 28.6 °F 30.1 in ESE 2.3 mph 2.3 mph 29 % 0 in 563.0 W/m2 CLR
10:33 61.7 °F 28.2 °F 30.1 in SE 3.5 mph 3.5 mph 28 % 0 in 334.0 W/m2 CLR
10:38 62.1 °F 27.7 °F 30.1 in ENE 3.5 mph 3.5 mph 27 % 0 in 441.0 W/m2 CLR
10:44 62.4 °F 27.9 °F 30.1 in ENE 2.3 mph 2.3 mph 27 % 0 in 728.0 W/m2 CLR
11:00 64.2 °F 27.7 °F 30.1 in ESE 2.3 mph 2.3 mph 25 % 0 in 816.0 W/m2 CLR
11:17 66.7 °F 27.9 °F 30.1 in SE 2.3 mph 2.3 mph 23 % 0 in 640.0 W/m2 CLR
11:22 67.6 °F 27.3 °F 30.1 in ENE 1.2 mph 1.2 mph 22 % 0 in 643.0 W/m2 CLR
11:28 68.4 °F 26.8 °F 30.1 in NE 2.3 mph 2.3 mph 21 % 0 in 649.0 W/m2 CLR
11:34 69.1 °F 27.3 °F 30.1 in NNE 3.5 mph 3.5 mph 21 % 0 in 652.0 W/m2 CLR
11:41 69.8 °F 28 °F 30.1 in Calm     21 % 0 in 659.0 W/m2 CLR
11:49 71.1 °F 27.9 °F 30.1 in SW 2.3 mph 2.3 mph 20 % 0 in 666.0 W/m2 CLR
12:02 71.8 °F 27.3 °F 30.1 in SW 3.5 mph 3.5 mph 19 % 0 in 671.0 W/m2 CLR
12:10 71.8 °F 27.3 °F 30 in South 1.2 mph 1.2 mph 19 % 0 in 675.0 W/m2 CLR
12:15 72.3 °F 27.9 °F 30 in South 1.2 mph   19 % 0 in 675.0 W/m2 CLR
12:21 73.2 °F 27.1 °F 30 in South 2.3 mph 2.3 mph 18 % 0 in 673.0 W/m2 CLR
12:30 74.5 °F 29.5 °F 30 in NW 3.5 mph 3.5 mph 19 % 0 in 679.0 W/m2 CLR
12:51 76.8 °F 28.8 °F 30 in West 3.5 mph 3.5 mph 17 % 0 in 670.0 W/m2 CLR
13:00 77.4 °F 27.7 °F 30 in WSW 4.6 mph 4.6 mph 16 % 0 in 666.0 W/m2 CLR
13:06 77.7 °F 29.5 °F 30 in WSW 3.5 mph 3.5 mph 17 % 0 in 664.0 W/m2 CLR
13:11 78.1 °F 29.7 °F 30 in WNW 4.6 mph 4.6 mph 17 % 0 in 661.0 W/m2 CLR
13:20 78.3 °F 29.8 °F 30 in WNW 3.5 mph 3.5 mph 17 % 0 in 652.0 W/m2 CLR
13:32 78.6 °F 28.8 °F 30 in WSW 2.3 mph 2.3 mph 16 % 0 in 638.0 W/m2 CLR
13:46 79.3 °F 29.1 °F 30 in West 3.5 mph 3.5 mph 16 % 0 in 619.0 W/m2 CLR
13:48 79.3 °F 29.1 °F 30 in NW 4 mph 4 mph 16 % 0 in 619.0 W/m2 CLR
13:49 79.3 °F 29.1 °F 30 in WSW 3.5 mph 3.5 mph 16 % 0 in 613.0 W/m2 CLR
13:50 79.2 °F 29.1 °F 30 in West 3.5 mph 3.5 mph 16 % 0 in 613.0 W/m2 CLR
13:51 79.2 °F 29.1 °F 30 in WSW 3.5 mph 3.5 mph 16 % 0 in 613.0 W/m2 CLR
13:53 79.2 °F 29.1 °F 30 in West 3.5 mph 3.5 mph 16 % 0 in 608.0 W/m2 CLR
13:54 79.2 °F 29.1 °F 30 in West 3.5 mph 3.5 mph 16 % 0 in 608.0 W/m2 CLR
13:56 79.2 °F 29.1 °F 30 in WSW 2.3 mph 2.3 mph 16 % 0 in 603.0 W/m2 CLR
14:03 79.2 °F 29.1 °F 30 in West 4.6 mph 4.6 mph 16 % 0 in 594.0 W/m2 CLR
14:04 79.2 °F 28.9 °F 30 in WSW 4.6 mph 4.6 mph 16 % 0 in 591.0 W/m2 CLR
14:06 79 °F 28.9 °F 30 in WNW 3.5 mph 3.5 mph 16 % 0 in 589.0 W/m2 CLR
14:15 79.2 °F 29.1 °F 30 in West 5 mph 5 mph 16 % 0 in 571.0 W/m2 CLR
14:18 79.2 °F 28.9 °F 30 in WNW 5 mph 5 mph 16 % 0 in 564.0 W/m2 CLR
14:34 78.6 °F 30 °F 30 in West 4.6 mph 4.6 mph 17 % 0 in 531.0 W/m2 CLR
14:39 78.4 °F 30 °F 30 in West 4.6 mph 4.6 mph 17 % 0 in 517.0 W/m2 CLR
14:49 78.4 °F 30 °F 30 in SW 4.6 mph 4.6 mph 17 % 0 in 497.0 W/m2 CLR
15:06 78.1 °F 29.7 °F 30 in WNW 5.8 mph 5.8 mph 17 % 0 in 454.0 W/m2 CLR
15:12 78.1 °F 28 °F 30 in WNW 5.8 mph 5.8 mph 16 % 0 in 438.0 W/m2 CLR
15:29 77.9 °F 28 °F 30 in SW 3.5 mph 3.5 mph 16 % 0 in 392.0 W/m2 CLR
15:34 77.7 °F 26.4 °F 30 in WNW 3.5 mph 3.5 mph 15 % 0 in 378.0 W/m2 CLR
15:43 77.5 °F 27.9 °F 30 in WNW 2.3 mph 2.3 mph 16 % 0 in 346.0 W/m2 CLR
15:49 77.5 °F 27.7 °F 30 in NNW 2.3 mph 2.3 mph 16 % 0 in 327.0 W/m2 CLR
15:57 77.2 °F 28.9 °F 30 in West 3.5 mph 3.5 mph 17 % 0 in 299.0 W/m2 CLR
16:05 76.8 °F 27.3 °F 30 in West 4.6 mph 4.6 mph 16 % 0 in 265.0 W/m2 CLR
16:19 76.5 °F 27 °F 30 in West 1.2 mph 1.2 mph 16 % 0 in 206.0 W/m2 CLR
16:31 76.6 °F 25.5 °F 30 in WNW 3.5 mph 3.5 mph 15 % 0 in 158.0 W/m2 CLR
16:39 75.9 °F 26.4 °F 30 in West 3.5 mph 3.5 mph 16 % 0 in 130.0 W/m2 CLR
16:49 75.6 °F 26.2 °F 30 in West 1.2 mph 1.2 mph 16 % 0 in 102.0 W/m2 CLR
17:04 74.8 °F 28.4 °F 30 in West 3.5 mph 3.5 mph 18 % 0 in 54.0 W/m2 CLR
17:11 74.1 °F 30.6 °F 30 in West 3.5 mph 3.5 mph 20 % 0 in 37.0 W/m2 CLR
17:18 73 °F 29.7 °F 30 in West 3.5 mph 3.5 mph 20 % 0 in 18.0 W/m2 CLR
17:28 72.1 °F 31.1 °F 30 in SW 4.6 mph 4.6 mph 22 % 0 in 12.0 W/m2 CLR
17:38 71.1 °F 30.4 °F 30 in West 3.5 mph 3.5 mph 22 % 0 in 5.0 W/m2 CLR
17:54 69.4 °F 30.9 °F 30 in SW 3.5 mph 3.5 mph 24 % 0 in 0.0 W/m2 CLR
18:01 68.7 °F 31.5 °F 30 in West 2.3 mph 2.3 mph 25 % 0 in 0.0 W/m2 CLR
18:32 66.2 °F 32.2 °F 30 in Calm     28 % 0 in 0.0 W/m2 CLR
18:37 65.8 °F 32.5 °F 30 in West 1 mph 1 mph 29 % 0 in 0.0 W/m2 CLR
18:44 65.3 °F 32.2 °F 30 in Calm     29 % 0 in 0.0 W/m2 CLR
18:53 64.8 °F 32.5 °F 30 in Calm     30 % 0 in 0.0 W/m2 CLR
19:01 64.2 °F 32.9 °F 30 in Calm     31 % 0 in 0.0 W/m2 CLR
19:08 63.9 °F 32.5 °F 30 in Calm     31 % 0 in 0.0 W/m2 CLR
19:16 63 °F 32.5 °F 30 in Calm     32 % 0 in 0.0 W/m2 CLR
19:22 62.4 °F 33.1 °F 30 in Calm     33 % 0 in 0.0 W/m2 CLR
19:38 61.2 °F 33.3 °F 30 in Calm     35 % 0 in 0.0 W/m2 CLR
19:51 59.2 °F 34.2 °F 30 in West 1.2 mph   39 % 0 in 0.0 W/m2 CLR
19:56 58.5 °F 34.2 °F 30 in Calm     40 % 0 in 0.0 W/m2 CLR
20:04 57.9 °F 34.3 °F 30 in Calm     41 % 0 in 0.0 W/m2 CLR
20:23 56.1 °F 34.5 °F 30 in Calm     44 % 0 in 0.0 W/m2 CLR
20:31 55.9 °F 34.9 °F 30 in West 1.2 mph   45 % 0 in 0.0 W/m2 CLR
20:38 55.2 °F 34.9 °F 30.1 in Calm     46 % 0 in 0.0 W/m2 CLR
21:10 53.4 °F 33.6 °F 30.1 in West 2.3 mph 2.3 mph 47 % 0 in 0.0 W/m2 CLR
21:23 53.1 °F 33.3 °F 30.1 in Calm     47 % 0 in 0.0 W/m2 CLR
21:33 52.9 °F 33.6 °F 30.1 in Calm     48 % 0 in 0.0 W/m2 CLR
21:39 52.5 °F 34.3 °F 30.1 in Calm     50 % 0 in 0.0 W/m2 CLR
21:52 52 °F 34.9 °F 30.1 in West 2.3 mph 2.3 mph 52 % 0 in 0.0 W/m2 CLR
22:01 51.4 °F 33.4 °F 30.1 in West 2.3 mph 2.3 mph 50 % 0 in 0.0 W/m2 CLR
22:08 51.3 °F 33.3 °F 30.1 in ENE 2.3 mph 2.3 mph 50 % 0 in 0.0 W/m2 CLR
22:23 51.3 °F 32.7 °F 30.1 in ENE 1.2 mph   49 % 0 in 0.0 W/m2 CLR
22:36 51.3 °F 32.7 °F 30.1 in ENE 1.2 mph 1.2 mph 49 % 0 in 0.0 W/m2 CLR
22:49 51.1 °F 33.1 °F 30.1 in ENE 2.3 mph 2.3 mph 50 % 0 in 0.0 W/m2 CLR
22:56 50.7 °F 32.7 °F 30.1 in ENE 1.2 mph 1.2 mph 50 % 0 in 0.0 W/m2 CLR
23:02 50.5 °F 32.5 °F 30.1 in ENE 1.2 mph 1.2 mph 50 % 0 in 0.0 W/m2 CLR
23:21 50.4 °F 33.3 °F 30.1 in ENE 2.3 mph 2.3 mph 52 % 0 in 0.0 W/m2 CLR
23:30 50.2 °F 33.3 °F 30.1 in ENE 2.3 mph 2.3 mph 52 % 0 in 0.0 W/m2 CLR
23:35 50.2 °F 33.3 °F 30.1 in ENE 2.3 mph 2.3 mph 52 % 0 in 0.0 W/m2 CLR
23:48 50.2 °F 32.7 °F 30.1 in ENE 1.2 mph 1.2 mph 51 % 0 in 0.0 W/m2 CLR
23:57 50 °F 32.5 °F 30.1 in ENE 1.2 mph 1.2 mph 51 % 0 in 0.0 W/m2 CLR
Countryside Manor, Tucson, AZ, USA
Compliments of Weather Underground - 3.75 mb